Time;durP1;ratioP1;P1;durP2;ratioP2;P2;SDS_P1;SDS_P2;PMS_P1;PMS_P2;Temp;Humidity;BMP_temperature;BMP_pressure;BME280_temperature;BME280_humidity;BME280_pressure;Samples;Min_cycle;Max_cycle;Signal;HPM_P1;HPM_P2
2021/12/29 00:01:23;;;;;;;8.82;3.70;;;;;;;9.71;73.29;98573.47;4961004;28;20212;-91
2021/12/29 00:03:48;;;;;;;5.30;2.35;;;;;;;9.67;73.70;98586.00;4958412;28;20993;-92
2021/12/29 00:06:14;;;;;;;5.97;2.87;;;;;;;9.65;74.15;98587.88;4957949;28;20199;-92
2021/12/29 00:08:40;;;;;;;7.03;3.90;;;;;;;9.63;74.10;98584.53;4951674;28;20278;-92
2021/12/29 00:11:06;;;;;;;4.60;2.60;;;;;;;9.61;74.49;98583.81;4927921;28;1166659;-90
2021/12/29 00:13:32;;;;;;;6.53;4.43;;;;;;;9.59;74.78;98585.75;4956073;28;20238;-91
2021/12/29 00:15:58;;;;;;;5.67;2.37;;;;;;;9.57;74.88;98602.53;4942967;28;20247;-91
2021/12/29 00:18:29;;;;;;;6.60;3.15;;;;;;;9.55;75.08;98607.88;4974091;28;20254;-91
2021/12/29 00:20:56;;;;;;;4.63;2.33;;;;;;;9.55;75.02;98613.13;4977666;28;20235;-91
2021/12/29 00:23:22;;;;;;;3.97;2.78;;;;;;;9.55;75.24;98620.16;4974550;28;20900;-91
2021/12/29 00:25:47;;;;;;;5.60;2.27;;;;;;;9.52;75.45;98619.44;4979489;28;20199;-91
2021/12/29 00:28:16;;;;;;;2.50;2.30;;;;;;;9.51;75.39;98616.94;4974105;28;20462;-92
2021/12/29 00:30:43;;;;;;;7.72;2.60;;;;;;;9.51;75.69;98620.41;4957439;28;20507;-91
2021/12/29 00:33:27;;;;;;;5.45;2.67;;;;;;;9.51;75.76;98619.56;4979143;28;20671;-90
2021/12/29 00:36:12;;;;;;;6.00;3.05;;;;;;;9.51;75.82;98623.03;4977512;28;20269;-91
2021/12/29 00:38:49;;;;;;;2.50;2.30;;;;;;;9.52;75.73;98629.09;4980159;28;20206;-91
2021/12/29 00:41:36;;;;;;;2.88;2.50;;;;;;;9.51;75.71;98636.13;4980825;28;20862;-91
2021/12/29 00:44:20;;;;;;;2.40;1.95;;;;;;;9.53;75.65;98639.47;4976242;28;20221;-91
2021/12/29 00:47:12;;;;;;;5.80;2.60;;;;;;;9.52;75.64;98650.91;4950210;28;20238;-91
2021/12/29 00:49:38;;;;;;;7.15;1.90;;;;;;;9.54;75.69;98645.56;4978380;28;20547;-90
2021/12/29 00:52:07;;;;;;;6.63;3.00;;;;;;;9.55;75.71;98656.88;4946831;28;20207;-90
2021/12/29 00:54:39;;;;;;;7.30;2.30;;;;;;;9.52;75.70;98648.28;4989907;28;20997;-91
2021/12/29 00:57:05;;;;;;;6.25;2.20;;;;;;;9.51;76.02;98654.47;4963833;28;20994;-91
2021/12/29 00:59:31;;;;;;;6.87;2.47;;;;;;;9.50;76.08;98658.06;4973397;28;20293;-91
2021/12/29 01:01:56;;;;;;;7.53;2.80;;;;;;;9.57;76.19;98665.47;4974624;28;20494;-90
2021/12/29 01:04:22;;;;;;;6.00;3.00;;;;;;;9.55;76.25;98669.97;4974275;28;20473;-92
2021/12/29 01:06:48;;;;;;;3.25;2.70;;;;;;;9.52;76.09;98666.63;4944861;28;20270;-91
2021/12/29 01:09:14;;;;;;;3.50;2.30;;;;;;;9.50;75.98;98681.66;4973995;28;20200;-91
2021/12/29 01:11:40;;;;;;;7.20;3.43;;;;;;;9.50;75.90;98680.78;4954991;28;20383;-91
2021/12/29 01:14:08;;;;;;;7.50;3.17;;;;;;;9.48;75.93;98680.91;4963235;28;20472;-91
2021/12/29 01:19:04;;;;;;;7.70;5.28;;;;;;;9.48;75.98;98691.41;4974628;28;20281;-93
2021/12/29 01:21:31;;;;;;;5.63;3.30;;;;;;;9.47;75.84;98691.50;4955502;28;20501;-90
2021/12/29 01:23:57;;;;;;;8.63;3.20;;;;;;;9.47;75.94;98704.63;4969482;28;20702;-91
2021/12/29 01:26:23;;;;;;;6.50;3.42;;;;;;;9.46;76.01;98695.09;4950979;28;20211;-91
2021/12/29 01:28:49;;;;;;;9.60;3.47;;;;;;;9.46;76.16;98709.03;4972426;28;20206;-91
2021/12/29 01:31:15;;;;;;;8.75;3.53;;;;;;;9.45;76.38;98699.50;4959787;28;20851;-92
2021/12/29 01:33:40;;;;;;;6.80;3.50;;;;;;;9.46;76.07;98710.81;4980373;28;20208;-91
2021/12/29 01:36:08;;;;;;;4.97;2.97;;;;;;;9.46;76.39;98710.81;4956588;28;20609;-93
2021/12/29 01:38:34;;;;;;;12.50;3.30;;;;;;;9.45;76.00;98719.59;4966942;28;20554;-91
2021/12/29 01:41:00;;;;;;;14.13;4.40;;;;;;;9.45;76.16;98717.84;4968925;28;20277;-90
2021/12/29 01:43:26;;;;;;;5.45;2.90;;;;;;;9.44;76.37;98704.84;4961067;28;20487;-92
2021/12/29 01:45:55;;;;;;;8.47;2.67;;;;;;;9.43;76.17;98709.25;4953706;28;21237;-91
2021/12/29 01:48:20;;;;;;;5.85;3.75;;;;;;;9.45;76.25;98722.22;4954206;28;20211;-91
2021/12/29 01:50:51;;;;;;;15.07;3.77;;;;;;;9.45;75.80;98723.09;4962347;28;21020;-91
2021/12/29 01:53:28;;;;;;;4.65;2.90;;;;;;;9.47;75.63;98733.44;4959226;28;20204;-92
2021/12/29 01:55:54;;;;;;;5.45;3.75;;;;;;;9.47;75.58;98731.66;4978629;28;20998;-91
2021/12/29 01:58:22;;;;;;;10.55;4.28;;;;;;;9.47;75.65;98738.69;4972878;28;20196;-90
2021/12/29 02:00:49;;;;;;;4.25;2.60;;;;;;;9.46;75.93;98745.72;4977169;28;20801;-91
2021/12/29 02:03:15;;;;;;;7.45;3.28;;;;;;;9.47;75.89;98746.56;4978508;28;20214;-91
2021/12/29 02:05:44;;;;;;;7.20;4.63;;;;;;;9.46;75.86;98753.59;4961251;28;20207;-92
2021/12/29 02:08:11;;;;;;;4.57;3.35;;;;;;;9.45;76.13;98759.78;4982581;28;20458;-91
2021/12/29 02:10:44;;;;;;;7.63;3.30;;;;;;;9.45;76.03;98756.31;4979386;28;20235;-92
2021/12/29 02:13:11;;;;;;;7.88;3.40;;;;;;;9.45;76.17;98775.53;4998365;28;20206;-92
2021/12/29 02:15:37;;;;;;;3.20;2.97;;;;;;;9.45;76.05;98778.13;4996017;28;20199;-91
2021/12/29 02:18:13;;;;;;;8.97;3.30;;;;;;;9.45;76.23;98779.91;4976581;28;20649;-93
2021/12/29 02:20:47;;;;;;;11.10;3.58;;;;;;;9.44;76.08;98783.47;4975624;28;20564;-91
2021/12/29 02:23:29;;;;;;;6.70;2.50;;;;;;;9.43;76.27;98780.03;4977922;28;20729;-92
2021/12/29 02:25:57;;;;;;;7.43;4.03;;;;;;;9.43;76.20;98787.88;4977086;28;20207;-92
2021/12/29 02:28:29;;;;;;;5.28;2.70;;;;;;;9.43;76.09;98782.66;4971711;28;20207;-91
2021/12/29 02:30:55;;;;;;;7.83;2.70;;;;;;;9.45;75.95;98786.00;4977722;28;20489;-91
2021/12/29 02:33:23;;;;;;;7.65;2.60;;;;;;;9.47;76.01;98784.09;4975287;28;21156;-91
2021/12/29 02:35:49;;;;;;;8.38;2.65;;;;;;;9.49;75.86;98805.78;4979973;28;20219;-92
2021/12/29 02:38:35;;;;;;;6.38;3.22;;;;;;;9.49;75.76;98791.84;4960513;28;20479;-91
2021/12/29 02:41:05;;;;;;;5.13;2.40;;;;;;;9.49;75.81;98805.78;4978788;28;20429;-90
2021/12/29 02:43:33;;;;;;;4.93;3.50;;;;;;;9.49;75.60;98792.69;4992793;28;20748;-91
2021/12/29 02:45:59;;;;;;;3.83;3.35;;;;;;;9.51;75.57;98797.81;5001022;28;20268;-92
2021/12/29 02:48:27;;;;;;;6.30;3.55;;;;;;;9.52;75.44;98799.50;4992044;28;20294;-91
2021/12/29 02:50:55;;;;;;;9.23;2.72;;;;;;;9.52;75.55;98807.34;4961293;28;20207;-93
2021/12/29 02:53:26;;;;;;;5.30;3.30;;;;;;;9.51;75.41;98809.16;4964122;28;20289;-92
2021/12/29 02:55:53;;;;;;;4.55;2.88;;;;;;;9.51;75.59;98810.94;4959737;28;20358;-90
2021/12/29 02:58:19;;;;;;;5.55;2.35;;;;;;;9.51;75.58;98813.56;4973737;28;20419;-91
2021/12/29 03:00:47;;;;;;;5.18;3.50;;;;;;;9.52;75.48;98817.84;4979367;28;21846;-91
2021/12/29 03:03:25;;;;;;;7.35;2.35;;;;;;;9.51;75.59;98827.50;4983617;28;20214;-91
2021/12/29 03:05:51;;;;;;;5.00;2.28;;;;;;;9.52;75.67;98828.31;4976518;28;20231;-92
2021/12/29 03:08:18;;;;;;;8.90;2.35;;;;;;;9.55;75.27;98827.28;4979677;28;20208;-92
2021/12/29 03:10:46;;;;;;;3.33;2.70;;;;;;;9.55;75.35;98822.03;4983815;28;21001;-93
2021/12/29 03:13:12;;;;;;;4.47;2.63;;;;;;;9.55;75.37;98824.66;4986147;28;21236;-91
2021/12/29 03:15:38;;;;;;;5.78;2.83;;;;;;;9.55;75.39;98824.66;4982326;28;20573;-91
2021/12/29 03:18:05;;;;;;;4.68;1.95;;;;;;;9.55;75.55;98825.47;4991631;28;20352;-91
2021/12/29 03:20:31;;;;;;;7.03;3.47;;;;;;;9.53;75.29;98830.84;4990499;28;20230;-90
2021/12/29 03:22:58;;;;;;;5.95;2.33;;;;;;;9.53;75.40;98835.22;4993638;28;20498;-91
2021/12/29 03:25:27;;;;;;;4.05;3.17;;;;;;;9.53;75.72;98830.00;4981901;28;20203;-93
2021/12/29 03:28:00;;;;;;;8.93;2.95;;;;;;;9.52;75.58;98828.31;4999505;28;20211;-92
2021/12/29 03:30:31;;;;;;;4.78;2.53;;;;;;;9.52;75.82;98830.94;4993359;28;20242;-92
2021/12/29 03:33:03;;;;;;;6.72;2.85;;;;;;;9.51;75.82;98837.97;4991792;28;20954;-92
2021/12/29 03:35:31;;;;;;;4.68;2.40;;;;;;;9.51;75.83;98842.41;4989779;28;20192;-90
2021/12/29 03:37:57;;;;;;;5.20;2.42;;;;;;;9.50;76.10;98840.69;4987831;28;20499;-94
2021/12/29 03:40:24;;;;;;;2.70;2.50;;;;;;;9.50;76.05;98843.31;4988554;28;20743;-91
2021/12/29 03:42:50;;;;;;;8.38;2.90;;;;;;;9.51;76.12;98845.00;4988287;28;20705;-91
2021/12/29 03:45:15;;;;;;;5.43;2.60;;;;;;;9.49;76.24;98839.88;4989841;28;20208;-90
2021/12/29 03:47:41;;;;;;;7.10;3.63;;;;;;;9.50;76.42;98840.69;4992874;28;20231;-89
2021/12/29 03:50:07;;;;;;;10.60;2.87;;;;;;;9.48;76.43;98847.84;4986627;28;20273;-90
2021/12/29 03:52:35;;;;;;;5.38;3.00;;;;;;;9.48;76.47;98853.09;4990236;28;20736;-92
2021/12/29 03:55:00;;;;;;;5.13;2.30;;;;;;;9.46;76.58;98850.56;4976856;28;20199;-90
2021/12/29 03:57:29;;;;;;;5.83;1.93;;;;;;;9.47;76.60;98844.38;4992962;28;20218;-92
2021/12/29 03:59:54;;;;;;;5.45;4.18;;;;;;;9.46;76.46;98845.34;4992483;28;20223;-91
2021/12/29 04:02:20;;;;;;;5.57;2.57;;;;;;;9.46;76.49;98840.09;4999807;28;20575;-90
2021/12/29 04:04:48;;;;;;;4.17;2.43;;;;;;;9.47;76.48;98840.91;5006370;28;20238;-92
2021/12/29 04:07:14;;;;;;;4.00;2.47;;;;;;;9.47;76.53;98856.66;4996683;28;20206;-92
2021/12/29 04:09:40;;;;;;;5.10;3.07;;;;;;;9.49;76.46;98849.53;4981444;28;20198;-92
2021/12/29 04:12:06;;;;;;;6.60;2.67;;;;;;;9.47;76.62;98847.00;4989925;28;20254;-91
2021/12/29 04:14:31;;;;;;;3.07;2.67;;;;;;;9.48;76.69;98847.84;4989053;28;20661;-91
2021/12/29 04:17:08;;;;;;;9.27;2.90;;;;;;;9.49;76.79;98860.00;4995414;28;20462;-91
2021/12/29 04:20:54;;;;;;;4.45;2.97;;;;;;;9.47;77.09;98848.78;4994244;28;20257;-93
2021/12/29 04:22:28;;;;;;;7.80;2.95;;;;;;;9.46;76.86;98847.94;4988037;28;20737;-90
2021/12/29 04:24:54;;;;;;;7.65;2.95;;;;;;;9.49;77.00;98855.59;4978117;28;20354;-92
2021/12/29 04:27:22;;;;;;;9.13;2.80;;;;;;;9.48;77.11;98856.56;4965163;28;20284;-93
2021/12/29 04:29:51;;;;;;;6.57;3.70;;;;;;;9.47;77.16;98857.47;4997866;28;20285;-93
2021/12/29 04:32:18;;;;;;;11.38;4.00;;;;;;;9.48;76.98;98864.41;5004588;28;20202;-90
2021/12/29 04:34:44;;;;;;;5.57;2.72;;;;;;;9.49;76.95;98870.50;4983930;28;20280;-92
2021/12/29 04:37:09;;;;;;;8.30;3.23;;;;;;;9.48;77.11;98882.78;4994189;28;20298;-90
2021/12/29 04:39:35;;;;;;;7.83;4.07;;;;;;;9.47;77.00;98883.69;4991160;28;20231;-89
2021/12/29 04:42:01;;;;;;;5.87;2.57;;;;;;;9.46;77.13;98882.03;4985283;28;20799;-88
2021/12/29 04:44:26;;;;;;;8.17;2.87;;;;;;;9.45;77.22;98875.13;4988175;28;20215;-91
2021/12/29 04:46:55;;;;;;;10.95;4.38;;;;;;;9.45;77.26;98888.22;4986335;28;20210;-91
2021/12/29 04:49:27;;;;;;;8.82;3.25;;;;;;;9.44;77.36;98878.69;4986953;28;21002;-92
2021/12/29 04:52:03;;;;;;;7.47;4.45;;;;;;;9.44;77.22;98891.78;4986177;28;20236;-93
2021/12/29 04:54:32;;;;;;;7.90;3.75;;;;;;;9.43;77.46;98889.28;4966783;28;20199;-92
2021/12/29 04:56:58;;;;;;;6.30;3.05;;;;;;;9.43;77.13;98882.25;4984570;28;20688;-91
2021/12/29 04:59:25;;;;;;;3.93;2.87;;;;;;;9.42;77.46;98877.09;4986476;28;20254;-92
2021/12/29 05:01:51;;;;;;;6.68;3.60;;;;;;;9.41;77.39;98872.81;4989450;28;20213;-90
2021/12/29 05:04:22;;;;;;;4.68;2.95;;;;;;;9.41;77.36;98880.69;4986761;28;20301;-91
2021/12/29 05:09:36;;;;;;;4.32;2.65;;;;;;;9.39;77.15;98883.41;4995025;28;20213;-91
2021/12/29 05:12:02;;;;;;;11.30;3.57;;;;;;;9.41;77.42;98883.31;4993512;28;20235;-90
2021/12/29 05:14:30;;;;;;;6.20;2.38;;;;;;;9.39;77.40;98895.66;4998954;28;20231;-91
2021/12/29 05:16:56;;;;;;;10.05;3.03;;;;;;;9.40;77.44;98892.13;5002475;28;20206;-91
2021/12/29 05:19:22;;;;;;;16.70;4.70;;;;;;;9.37;77.54;98887.94;4999687;28;20385;-91
2021/12/29 05:21:51;;;;;;;7.13;3.17;;;;;;;9.37;77.42;98890.56;5005364;28;20494;-92
2021/12/29 05:24:16;;;;;;;7.68;2.75;;;;;;;9.37;77.32;98897.56;4999276;28;20207;-90
2021/12/29 05:26:42;;;;;;;4.93;3.10;;;;;;;9.36;77.45;98901.97;5004705;28;20291;-89
2021/12/29 05:29:08;;;;;;;5.20;2.70;;;;;;;9.37;77.53;98915.91;4991390;28;20213;-90
2021/12/29 05:31:33;;;;;;;5.87;4.10;;;;;;;9.36;77.45;98912.44;4981842;28;20570;-91
2021/12/29 05:33:59;;;;;;;6.50;3.57;;;;;;;9.36;77.35;98911.63;4985879;28;20931;-91
2021/12/29 05:36:25;;;;;;;9.00;2.80;;;;;;;9.36;77.39;98917.69;4991319;28;20203;-90
2021/12/29 05:38:53;;;;;;;7.87;3.00;;;;;;;9.36;77.37;98919.47;4994774;28;20269;-90
2021/12/29 05:41:19;;;;;;;9.05;3.47;;;;;;;9.36;77.46;98914.25;4993586;28;20227;-90
2021/12/29 05:43:49;;;;;;;9.35;3.30;;;;;;;9.34;77.64;98905.63;5002369;28;20715;-91
2021/12/29 05:46:15;;;;;;;5.07;3.08;;;;;;;9.34;77.62;98908.25;4994430;28;20206;-91
2021/12/29 05:48:41;;;;;;;6.57;3.72;;;;;;;9.33;77.77;98917.06;4998125;28;20203;-90
2021/12/29 05:51:06;;;;;;;4.57;2.90;;;;;;;9.29;77.71;98919.09;5004325;28;20202;-91
2021/12/29 05:53:33;;;;;;;10.43;3.20;;;;;;;9.28;77.92;98914.75;4998358;28;21058;-91
2021/12/29 05:55:58;;;;;;;9.60;3.03;;;;;;;9.27;77.89;98918.34;4983787;28;20302;-92
2021/12/29 05:58:26;;;;;;;4.90;2.63;;;;;;;9.26;77.91;98916.66;4976326;28;21187;-91
2021/12/29 06:00:55;;;;;;;6.60;3.60;;;;;;;9.24;78.10;98908.06;4982762;28;20570;-91
2021/12/29 06:03:20;;;;;;;6.70;4.20;;;;;;;9.23;78.17;98909.00;4961097;28;20898;-91
2021/12/29 06:05:46;;;;;;;6.50;3.30;;;;;;;9.23;78.09;98916.88;4967117;28;20203;-91
2021/12/29 06:08:11;;;;;;;8.67;5.47;;;;;;;9.21;78.32;98918.78;4963152;28;20235;-92
2021/12/29 06:10:37;;;;;;;9.37;3.60;;;;;;;9.18;78.26;98925.06;4968699;28;20593;-92
2021/12/29 06:13:08;;;;;;;4.00;3.10;;;;;;;9.18;78.39;98932.94;4953313;28;20749;-90
2021/12/29 06:15:34;;;;;;;12.32;4.68;;;;;;;9.19;78.33;98931.97;4965803;28;20458;-92
2021/12/29 06:18:00;;;;;;;8.43;4.27;;;;;;;9.19;78.28;98925.91;4957404;28;20270;-93
2021/12/29 06:20:30;;;;;;;7.80;3.13;;;;;;;9.20;78.36;98917.06;4958043;28;20227;-93
2021/12/29 06:23:01;;;;;;;7.18;3.00;;;;;;;9.20;78.36;98920.53;4956844;28;20470;-92
2021/12/29 06:25:29;;;;;;;10.07;3.45;;;;;;;9.21;78.49;98924.03;4977370;28;20214;-93
2021/12/29 06:27:55;;;;;;;7.13;3.15;;;;;;;9.21;78.30;98924.03;4962120;28;20305;-92
2021/12/29 06:30:21;;;;;;;8.65;3.65;;;;;;;9.21;78.36;98927.47;4968681;28;20314;-92
2021/12/29 06:32:49;;;;;;;16.52;3.42;;;;;;;9.22;78.02;98929.13;4975345;28;20582;-92
2021/12/29 06:35:21;;;;;;;4.05;2.47;;;;;;;9.23;77.93;98937.81;4977182;28;20196;-92
2021/12/29 06:37:47;;;;;;;12.63;3.88;;;;;;;9.24;77.94;98944.75;4962550;28;20735;-92
2021/12/29 06:40:14;;;;;;;11.20;3.50;;;;;;;9.24;78.04;98945.59;4980433;28;20216;-92
2021/12/29 06:42:40;;;;;;;9.77;2.97;;;;;;;9.25;78.00;98952.50;4957354;28;20784;-92
2021/12/29 06:45:07;;;;;;;5.63;4.05;;;;;;;9.25;77.68;98955.13;4977134;28;20230;-91
2021/12/29 06:47:33;;;;;;;6.82;4.10;;;;;;;9.27;77.90;98965.50;4972821;28;20204;-92
2021/12/29 06:49:59;;;;;;;8.67;3.87;;;;;;;9.27;77.66;98955.88;4977418;28;20199;-93
2021/12/29 06:52:25;;;;;;;10.75;5.10;;;;;;;9.27;77.86;98958.47;4963102;28;20234;-92
2021/12/29 06:54:51;;;;;;;7.47;4.35;;;;;;;9.28;77.81;98961.94;4963794;28;20233;-91
2021/12/29 06:57:17;;;;;;;6.87;3.90;;;;;;;9.27;77.85;98968.97;4984551;28;20214;-91
2021/12/29 06:59:43;;;;;;;17.75;5.25;;;;;;;9.29;77.89;98974.13;4966698;28;20354;-92
2021/12/29 07:02:11;;;;;;;9.17;5.23;;;;;;;9.29;78.03;98974.94;4982227;28;20219;-91
2021/12/29 07:04:37;;;;;;;15.65;7.13;;;;;;;9.29;77.99;98971.50;4992868;28;20493;-91
2021/12/29 07:07:03;;;;;;;11.48;4.68;;;;;;;9.28;77.92;98973.25;4978940;28;20228;-92
2021/12/29 07:09:29;;;;;;;12.60;6.13;;;;;;;9.28;77.97;98978.50;4994734;28;20824;-91
2021/12/29 07:11:55;;;;;;;7.50;5.67;;;;;;;9.28;78.08;98972.41;4959973;28;20239;-91
2021/12/29 07:14:22;;;;;;;9.32;5.57;;;;;;;9.27;78.20;98976.84;4959260;28;20207;-91
2021/12/29 07:16:57;;;;;;;8.20;3.90;;;;;;;9.27;78.20;98976.84;4964367;28;20658;-92
2021/12/29 07:19:22;;;;;;;7.65;2.97;;;;;;;9.27;78.27;98986.47;4961674;28;20219;-91
2021/12/29 07:21:51;;;;;;;10.13;3.40;;;;;;;9.28;78.25;98988.16;4982771;28;20211;-92
2021/12/29 07:24:17;;;;;;;8.20;4.88;;;;;;;9.27;78.56;98983.84;4983990;28;20273;-92
2021/12/29 07:26:44;;;;;;;4.40;2.80;;;;;;;9.27;78.42;98965.50;4979832;28;20311;-92
2021/12/29 07:29:09;;;;;;;8.40;3.38;;;;;;;9.29;78.46;98979.34;4981890;28;20241;-91
2021/12/29 07:31:41;;;;;;;5.65;2.95;;;;;;;9.29;78.85;98972.31;4981381;28;20202;-92
2021/12/29 07:34:07;;;;;;;4.05;2.67;;;;;;;9.30;78.90;98970.53;4985570;28;20208;-91
2021/12/29 07:36:35;;;;;;;14.90;3.70;;;;;;;9.32;78.79;98984.38;4983682;28;20574;-91
2021/12/29 07:39:04;;;;;;;9.95;3.50;;;;;;;9.31;78.99;98978.28;4964815;28;20216;-91
2021/12/29 07:41:33;;;;;;;6.88;3.40;;;;;;;9.32;79.00;98973.91;4983989;28;20704;-90
2021/12/29 07:44:11;;;;;;;6.35;3.80;;;;;;;9.33;79.02;98987.84;4983829;28;20211;-92
2021/12/29 07:46:37;;;;;;;8.48;4.18;;;;;;;9.33;79.12;98988.66;4983361;28;20214;-91
2021/12/29 07:49:06;;;;;;;6.37;2.50;;;;;;;9.34;79.03;98987.72;4982335;28;20267;-92
2021/12/29 07:51:32;;;;;;;6.95;4.53;;;;;;;9.36;79.00;98985.84;4960866;28;20490;-92
2021/12/29 07:53:59;;;;;;;9.10;3.90;;;;;;;9.38;78.94;98991.81;4977025;28;20629;-91
2021/12/29 07:56:26;;;;;;;15.10;6.25;;;;;;;9.42;78.91;98989.81;4975433;28;20215;-91
2021/12/29 07:58:52;;;;;;;12.02;3.75;;;;;;;9.43;78.92;98989.72;4974631;28;20543;-91
2021/12/29 08:01:25;;;;;;;7.77;3.37;;;;;;;9.46;79.00;98996.53;4957675;28;20208;-92
2021/12/29 08:03:51;;;;;;;12.82;4.65;;;;;;;9.47;78.78;98983.31;4977659;28;20669;-92
2021/12/29 08:06:27;;;;;;;10.57;3.72;;;;;;;9.49;78.79;98986.66;4976610;28;20250;-92
2021/12/29 08:08:55;;;;;;;11.30;4.10;;;;;;;9.51;78.69;98990.03;4962785;28;20211;-92
2021/12/29 08:11:24;;;;;;;7.30;3.78;;;;;;;9.53;78.43;98985.53;4974463;28;20562;-91
2021/12/29 08:13:50;;;;;;;8.82;3.83;;;;;;;9.57;78.47;99001.03;4977824;28;20211;-92
2021/12/29 08:16:19;;;;;;;11.85;4.18;;;;;;;9.57;78.58;99003.66;4978985;28;20212;-92
2021/12/29 08:18:55;;;;;;;10.68;3.50;;;;;;;9.59;78.46;99004.41;4982894;28;20307;-92
2021/12/29 08:21:26;;;;;;;9.45;2.97;;;;;;;9.59;78.22;99007.03;4986414;28;20211;-92
2021/12/29 08:23:54;;;;;;;4.80;2.88;;;;;;;9.62;78.13;99009.44;4976257;28;20226;-91
2021/12/29 08:26:21;;;;;;;8.35;3.10;;;;;;;9.63;78.08;99004.06;4977441;28;20200;-91
2021/12/29 08:28:49;;;;;;;4.88;2.97;;;;;;;9.64;78.08;99005.75;4975792;28;20203;-91
2021/12/29 08:31:14;;;;;;;9.93;2.80;;;;;;;9.65;77.78;99011.84;4980781;28;20231;-91
2021/12/29 08:33:43;;;;;;;11.43;3.42;;;;;;;9.68;77.80;99022.13;4976980;28;20851;-91
2021/12/29 08:36:12;;;;;;;10.43;4.40;;;;;;;9.70;77.56;99025.47;4976191;28;20266;-92
2021/12/29 08:38:40;;;;;;;9.15;3.53;;;;;;;9.73;77.42;99031.34;4973506;28;20478;-91
2021/12/29 08:41:06;;;;;;;8.07;3.47;;;;;;;9.77;77.11;99036.38;4979607;28;20275;-92
2021/12/29 08:43:32;;;;;;;9.73;3.77;;;;;;;9.80;77.07;99036.16;4978418;28;20235;-91
2021/12/29 08:45:58;;;;;;;8.60;4.00;;;;;;;9.82;77.02;99039.50;4960101;28;20455;-91
2021/12/29 08:48:27;;;;;;;6.90;3.58;;;;;;;9.83;76.70;99035.94;4974776;28;20270;-91
2021/12/29 08:50:52;;;;;;;5.72;2.70;;;;;;;9.84;76.71;99043.72;4975862;28;20200;-92
2021/12/29 08:53:21;;;;;;;6.70;2.90;;;;;;;9.86;76.46;99038.38;4961807;28;20204;-91
2021/12/29 08:55:48;;;;;;;9.88;3.38;;;;;;;9.87;76.71;99043.50;4980930;28;20571;-90
2021/12/29 08:58:17;;;;;;;8.88;4.00;;;;;;;9.88;76.41;99034.69;4986208;28;20215;-93
2021/12/29 09:00:43;;;;;;;6.15;2.90;;;;;;;9.88;76.58;99039.94;4982352;28;20566;-93
2021/12/29 09:03:12;;;;;;;7.03;3.55;;;;;;;9.88;76.24;99042.56;4984219;28;20199;-91
2021/12/29 09:05:38;;;;;;;12.27;3.92;;;;;;;9.89;75.97;99036.34;4985919;28;20299;-91
2021/12/29 09:08:04;;;;;;;10.35;4.03;;;;;;;9.90;76.09;99029.31;4990447;28;20198;-92
2021/12/29 09:10:30;;;;;;;6.40;2.67;;;;;;;9.93;75.52;99037.81;4988572;28;20263;-91
2021/12/29 09:12:59;;;;;;;4.87;4.23;;;;;;;9.94;75.40;99022.94;4973113;28;20203;-93
2021/12/29 09:15:25;;;;;;;7.45;3.58;;;;;;;9.95;75.56;99037.72;4985728;28;20208;-93
2021/12/29 09:17:51;;;;;;;5.28;3.20;;;;;;;9.94;75.57;99036.88;4977841;28;20203;-92
2021/12/29 09:20:31;;;;;;;8.10;2.20;;;;;;;9.96;75.09;99039.38;4978985;28;20247;-92
2021/12/29 09:23:08;;;;;;;5.80;3.38;;;;;;;9.94;75.22;99036.88;4980584;28;20261;-91
2021/12/29 09:25:34;;;;;;;5.93;2.58;;;;;;;9.93;75.22;99032.56;4982309;28;20435;-92
2021/12/29 09:28:00;;;;;;;5.00;2.70;;;;;;;9.92;75.29;99023.03;4984574;28;20215;-92
2021/12/29 09:30:28;;;;;;;7.27;3.83;;;;;;;9.91;75.54;99044.97;4990698;28;20322;-93
2021/12/29 09:32:55;;;;;;;5.10;2.30;;;;;;;9.90;75.76;99047.69;5003719;28;20909;-90
2021/12/29 09:35:22;;;;;;;7.28;3.03;;;;;;;9.87;75.99;99048.72;4990688;28;20195;-93
2021/12/29 09:37:50;;;;;;;4.32;2.88;;;;;;;9.83;76.69;99055.16;5004697;28;20234;-91
2021/12/29 09:40:19;;;;;;;8.93;2.40;;;;;;;9.77;77.11;99060.81;5003688;28;20286;-91
2021/12/29 09:42:48;;;;;;;2.35;1.60;;;;;;;9.72;77.28;99057.66;5004920;28;20245;-90
2021/12/29 09:45:15;;;;;;;8.23;2.50;;;;;;;9.65;77.86;99069.53;5005680;28;20210;-91
2021/12/29 09:47:44;;;;;;;3.22;2.40;;;;;;;9.59;78.51;99077.81;5007233;28;20202;-91
2021/12/29 09:50:12;;;;;;;6.03;1.83;;;;;;;9.50;78.75;99072.25;4976056;28;20222;-92
2021/12/29 09:52:39;;;;;;;4.60;2.35;;;;;;;9.43;79.57;99078.84;5006792;28;20234;-91
2021/12/29 09:55:14;;;;;;;3.10;2.80;;;;;;;9.36;79.74;99090.69;4990827;28;20235;-91
2021/12/29 09:57:46;;;;;;;6.78;2.90;;;;;;;9.29;80.25;99097.28;5006085;28;20202;-91
2021/12/29 10:00:27;;;;;;;3.28;2.10;;;;;;;9.22;80.48;99093.38;4993529;28;20238;-91
2021/12/29 10:02:58;;;;;;;2.85;2.35;;;;;;;9.16;81.12;99102.50;4983448;28;20266;-91
2021/12/29 10:05:35;;;;;;;4.22;2.13;;;;;;;9.11;81.36;99108.97;4998525;28;20194;-91
2021/12/29 10:08:06;;;;;;;3.78;1.55;;;;;;;9.07;81.47;99108.31;5000529;28;20905;-91
2021/12/29 10:10:47;;;;;;;4.20;2.33;;;;;;;9.02;81.69;99102.56;5006373;28;20243;-91
2021/12/29 10:13:18;;;;;;;4.68;2.25;;;;;;;8.97;81.95;99105.47;4989715;28;20194;-90
2021/12/29 10:15:47;;;;;;;4.78;2.50;;;;;;;8.96;82.06;99098.53;5004015;28;20290;-91
2021/12/29 10:18:18;;;;;;;3.50;1.70;;;;;;;8.95;82.22;99111.75;5001716;28;20207;-93
2021/12/29 10:21:05;;;;;;;7.53;1.63;;;;;;;8.94;82.27;99110.06;4999854;28;20223;-90
2021/12/29 10:24:01;;;;;;;4.15;1.90;;;;;;;8.92;82.12;99117.19;4996223;28;20273;-91
2021/12/29 10:26:30;;;;;;;3.55;2.13;;;;;;;8.87;82.40;99120.09;4991693;28;20218;-93
2021/12/29 10:29:02;;;;;;;3.67;2.20;;;;;;;8.86;82.51;99116.66;4993867;28;20199;-91
2021/12/29 10:31:33;;;;;;;3.78;2.60;;;;;;;8.90;82.82;99116.44;4984538;28;20488;-90
2021/12/29 10:34:32;;;;;;;2.53;1.75;;;;;;;8.87;82.91;99114.88;4999440;28;20206;-90
2021/12/29 10:37:07;;;;;;;2.78;1.65;;;;;;;8.84;82.91;99120.31;4983209;28;20227;-91
2021/12/29 10:40:23;;;;;;;3.03;2.13;;;;;;;8.80;83.35;99109.19;4985206;28;20697;-91
2021/12/29 10:42:55;;;;;;;8.30;2.70;;;;;;;8.78;83.21;99099.75;4985470;28;20677;-91
2021/12/29 10:45:32;;;;;;;3.38;1.98;;;;;;;8.76;83.62;99094.59;4986710;28;20282;-90
2021/12/29 10:48:15;;;;;;;4.75;2.53;;;;;;;8.75;83.75;99094.69;4966237;28;20200;-90
2021/12/29 10:51:13;;;;;;;5.78;2.10;;;;;;;8.73;83.67;99075.66;4999218;28;20219;-91
2021/12/29 10:53:49;;;;;;;3.45;2.78;;;;;;;8.73;83.64;99070.41;4995598;28;20317;-90
2021/12/29 10:57:06;;;;;;;6.00;4.18;;;;;;;8.75;83.92;99072.00;5004530;28;20263;-91
2021/12/29 10:59:55;;;;;;;7.05;4.55;;;;;;;8.77;83.75;99066.63;5010702;28;20239;-91
2021/12/29 11:02:42;;;;;;;7.78;4.38;;;;;;;8.78;83.70;99063.09;5008544;28;20728;-90
2021/12/29 11:05:34;;;;;;;3.25;2.40;;;;;;;8.78;83.89;99063.09;5010283;28;20364;-90
2021/12/29 11:08:17;;;;;;;2.65;1.75;;;;;;;8.80;83.92;99050.72;5004589;28;20213;-90
2021/12/29 11:10:49;;;;;;;4.93;2.53;;;;;;;8.81;83.79;99045.41;5008371;28;20254;-90
2021/12/29 11:13:26;;;;;;;4.20;3.28;;;;;;;8.83;84.06;99034.81;5012574;28;20226;-91
2021/12/29 11:16:25;;;;;;;4.13;2.58;;;;;;;8.85;84.00;99028.53;5005204;28;20199;-91
2021/12/29 11:19:01;;;;;;;3.55;2.85;;;;;;;8.89;83.96;99029.19;5012991;28;20219;-91
2021/12/29 11:22:12;;;;;;;2.63;1.90;;;;;;;8.91;84.04;99027.31;5010718;28;20226;-91
2021/12/29 11:25:03;;;;;;;1.42;1.30;;;;;;;8.93;83.90;99014.94;5010903;28;20199;-91
2021/12/29 11:30:43;;;;;;;2.67;1.75;;;;;;;9.00;84.09;99002.28;5002091;28;21011;-92
2021/12/29 11:33:23;;;;;;;2.63;1.77;;;;;;;9.04;83.83;99014.22;5010706;28;20221;-92
2021/12/29 11:36:13;;;;;;;1.75;1.65;;;;;;;9.09;83.85;99015.59;5005292;28;20209;-93
2021/12/29 11:38:38;;;;;;;1.95;1.55;;;;;;;9.17;83.77;99028.19;5008169;28;20307;-92
2021/12/29 11:41:06;;;;;;;1.90;1.77;;;;;;;9.23;83.64;99027.75;5006817;28;20699;-93
2021/12/29 11:43:37;;;;;;;2.53;1.88;;;;;;;9.29;83.51;99022.13;4996232;28;20207;-92
2021/12/29 11:46:06;;;;;;;2.30;2.10;;;;;;;9.35;83.44;99035.75;4999021;28;20648;-92
2021/12/29 11:48:31;;;;;;;3.05;1.52;;;;;;;9.36;83.34;99029.56;5002767;28;20203;-93
2021/12/29 11:51:03;;;;;;;2.28;2.03;;;;;;;9.37;83.30;99019.00;4999125;28;20773;-92
2021/12/29 11:53:35;;;;;;;3.45;2.30;;;;;;;9.40;83.20;99013.53;4995971;28;20212;-92
2021/12/29 11:56:14;;;;;;;2.38;1.92;;;;;;;9.41;83.25;99019.59;5003519;28;20199;-92
2021/12/29 11:58:45;;;;;;;2.05;1.85;;;;;;;9.40;83.29;99021.41;5002897;28;20203;-92
2021/12/29 12:01:14;;;;;;;1.63;1.52;;;;;;;9.41;83.29;99024.84;4985506;28;20206;-92
2021/12/29 12:03:44;;;;;;;1.50;1.40;;;;;;;9.42;83.22;99016.88;4989028;28;20319;-92